createdAt,value
2019-03-28T00:00:19.336Z,36.4
2019-03-28T00:01:09.359Z,36.4
2019-03-28T00:01:59.689Z,36.4
2019-03-28T00:02:49.453Z,36.4
2019-03-28T00:03:38.970Z,36.4
2019-03-28T00:04:29.026Z,36.3
2019-03-28T00:05:19.141Z,36.3
2019-03-28T00:06:09.978Z,36.3
2019-03-28T00:06:59.215Z,36.3
2019-03-28T00:07:49.813Z,36.3
2019-03-28T00:08:39.330Z,36.3
2019-03-28T00:09:29.951Z,36.3
2019-03-28T00:10:20.292Z,36.3
2019-03-28T00:11:09.890Z,36.3
2019-03-28T00:12:00.563Z,36.3
2019-03-28T00:12:49.916Z,36.3
2019-03-28T00:13:40.240Z,36.3
2019-03-28T00:14:30.313Z,36.3
2019-03-28T00:15:20.090Z,36.3
2019-03-28T00:16:10.426Z,36.3
2019-03-28T00:16:59.463Z,36.3
2019-03-28T00:17:49.869Z,36.3
2019-03-28T00:18:39.933Z,36.3
2019-03-28T00:19:29.733Z,36.3
2019-03-28T00:20:21.329Z,36.3
2019-03-28T00:21:09.553Z,36.2
2019-03-28T00:22:00.368Z,36.3
2019-03-28T00:22:50.240Z,36.3
2019-03-28T00:23:40.765Z,36.3
2019-03-28T00:24:30.850Z,36.2
2019-03-28T00:25:20.612Z,36.3
2019-03-28T00:26:10.693Z,36.2
2019-03-28T00:27:01.131Z,36.2
2019-03-28T00:27:51.572Z,36.2
2019-03-28T00:28:41.909Z,36.2
2019-03-28T00:29:31.794Z,36.2
2019-03-28T00:30:21.710Z,36.2
2019-03-28T00:31:12.129Z,36.2
2019-03-28T00:32:01.920Z,36.2
2019-03-28T00:32:50.912Z,36.2
2019-03-28T00:33:40.652Z,36.2
2019-03-28T00:34:31.572Z,36.2
2019-03-28T00:35:21.077Z,36.1
2019-03-28T00:36:11.391Z,36.1
2019-03-28T00:37:01.724Z,36.2
2019-03-28T00:37:52.271Z,36.1
2019-03-28T00:38:41.834Z,36.1
2019-03-28T00:39:31.551Z,36.1
2019-03-28T00:40:22.452Z,36.1
2019-03-28T00:41:11.766Z,36.1
2019-03-28T00:42:00.966Z,36.1
2019-03-28T00:42:52.630Z,36.1
2019-03-28T00:43:41.952Z,36.1
2019-03-28T00:44:32.456Z,36.1
2019-03-28T00:45:22.144Z,36.1
2019-03-28T00:46:12.313Z,36.1
2019-03-28T00:47:02.131Z,36.1
2019-03-28T00:47:52.708Z,36.1
2019-03-28T00:48:43.036Z,36.1
2019-03-28T00:49:32.818Z,36.1
2019-03-28T00:50:22.886Z,36.1
2019-03-28T00:51:12.739Z,36.1
2019-03-28T00:52:02.779Z,36
2019-03-28T00:52:53.375Z,36.1
2019-03-28T00:53:43.448Z,36
2019-03-28T00:54:33.456Z,36.1
2019-03-28T00:55:23.605Z,36
2019-03-28T00:56:13.323Z,36
2019-03-28T00:57:03.759Z,36
2019-03-28T00:57:52.974Z,36
2019-03-28T00:58:43.200Z,36
2019-03-28T00:59:33.923Z,36
2019-03-28T01:00:22.078Z,36
2019-03-28T01:01:13.195Z,36
2019-03-28T01:02:03.283Z,36
2019-03-28T01:02:53.078Z,36
2019-03-28T01:03:43.709Z,35.9
2019-03-28T01:04:33.450Z,35.9
2019-03-28T01:05:23.796Z,35.9
2019-03-28T01:06:13.293Z,35.9
2019-03-28T01:07:02.895Z,35.9
2019-03-28T01:07:53.473Z,35.9
2019-03-28T01:08:43.810Z,35.9
2019-03-28T01:09:34.455Z,35.9
2019-03-28T01:10:25.078Z,35.9
2019-03-28T01:11:15.041Z,35.9
2019-03-28T01:12:04.674Z,35.9
2019-03-28T01:12:55.060Z,35.9
2019-03-28T01:13:45.199Z,35.9
2019-03-28T01:14:34.565Z,35.9
2019-03-28T01:15:24.796Z,35.9
2019-03-28T01:16:14.677Z,35.9
2019-03-28T01:17:04.315Z,35.9
2019-03-28T01:17:55.647Z,35.9
2019-03-28T01:18:45.176Z,35.9
2019-03-28T01:19:35.147Z,35.9
2019-03-28T01:20:24.324Z,35.9
2019-03-28T01:21:14.921Z,35.9
2019-03-28T01:22:04.894Z,35.9
2019-03-28T01:22:55.029Z,35.9
2019-03-28T01:23:46.080Z,35.9
2019-03-28T01:24:35.074Z,35.8
2019-03-28T01:25:25.446Z,35.8
2019-03-28T01:26:15.487Z,35.9
2019-03-28T01:27:05.829Z,35.8
2019-03-28T01:27:56.049Z,35.9
2019-03-28T01:28:46.529Z,35.8
2019-03-28T01:29:35.921Z,35.8
2019-03-28T01:30:25.564Z,35.8
2019-03-28T01:31:15.886Z,35.8
2019-03-28T01:32:06.614Z,35.8
2019-03-28T01:32:56.571Z,35.8
2019-03-28T01:33:46.281Z,35.8
2019-03-28T01:34:36.578Z,35.8
2019-03-28T01:35:27.095Z,35.8
2019-03-28T01:36:16.996Z,35.8
2019-03-28T01:37:06.805Z,35.8
2019-03-28T01:37:56.920Z,35.8
2019-03-28T01:38:46.902Z,35.8
2019-03-28T01:39:37.373Z,35.8
2019-03-28T01:40:27.206Z,35.8
2019-03-28T01:41:17.228Z,35.8
2019-03-28T01:42:07.650Z,35.8
2019-03-28T01:42:56.590Z,35.8
2019-03-28T01:43:46.757Z,35.8
2019-03-28T01:44:36.581Z,35.8
2019-03-28T01:45:26.925Z,35.8
2019-03-28T01:46:16.650Z,35.7
2019-03-28T01:47:07.005Z,35.8
2019-03-28T01:47:55.945Z,35.8
2019-03-28T01:48:47.189Z,35.7
2019-03-28T01:49:36.917Z,35.7
2019-03-28T01:50:26.959Z,35.7
2019-03-28T01:51:17.011Z,35.7
2019-03-28T01:52:10.547Z,35.7
2019-03-28T01:52:57.712Z,35.7
2019-03-28T01:53:46.909Z,35.7
2019-03-28T01:54:37.282Z,35.7
2019-03-28T01:55:27.578Z,35.7
2019-03-28T01:56:17.942Z,35.7
2019-03-28T01:57:18.348Z,35.7
2019-03-28T01:57:57.766Z,35.6
2019-03-28T01:58:47.824Z,35.7
2019-03-28T01:59:37.890Z,35.6
2019-03-28T02:00:27.949Z,35.6
2019-03-28T02:01:17.732Z,35.6
2019-03-28T02:02:07.517Z,35.6
2019-03-28T02:02:58.432Z,35.6
2019-03-28T02:03:47.986Z,35.6
2019-03-28T02:04:38.284Z,35.6
2019-03-28T02:05:28.357Z,35.6
2019-03-28T02:06:18.383Z,35.6
2019-03-28T02:07:08.167Z,35.6
2019-03-28T02:07:57.945Z,35.6
2019-03-28T02:08:48.562Z,35.6
2019-03-28T02:09:38.948Z,35.6
2019-03-28T02:10:28.934Z,35.6
2019-03-28T02:11:19.403Z,35.6
2019-03-28T02:12:09.777Z,35.6
2019-03-28T02:12:59.771Z,35.6
2019-03-28T02:13:49.209Z,35.6
2019-03-28T02:14:39.803Z,35.6
2019-03-28T02:15:29.057Z,35.6
2019-03-28T02:16:18.541Z,35.6
2019-03-28T02:17:08.380Z,35.5
2019-03-28T02:17:58.656Z,35.6
2019-03-28T02:18:48.440Z,35.5
2019-03-28T02:19:39.615Z,35.5
2019-03-28T02:20:29.686Z,35.5
2019-03-28T02:21:19.506Z,35.6
2019-03-28T02:22:09.343Z,35.5
2019-03-28T02:22:59.384Z,35.5
2019-03-28T02:23:48.886Z,35.5
2019-03-28T02:24:38.936Z,35.5
2019-03-28T02:25:30.039Z,35.5
2019-03-28T02:26:19.263Z,35.5
2019-03-28T02:27:08.848Z,35.5
2019-03-28T02:27:59.480Z,35.5
2019-03-28T02:28:50.003Z,35.5
2019-03-28T02:29:39.550Z,35.4
2019-03-28T02:30:31.487Z,35.5
2019-03-28T02:31:21.816Z,35.4
2019-03-28T02:32:10.326Z,35.4
2019-03-28T02:33:00.976Z,35.4
2019-03-28T02:33:50.158Z,35.4
2019-03-28T02:34:39.964Z,35.4
2019-03-28T02:35:29.981Z,35.4
2019-03-28T02:36:20.688Z,35.4
2019-03-28T02:37:10.776Z,35.4
2019-03-28T02:38:00.557Z,35.4
2019-03-28T02:38:51.063Z,35.4
2019-03-28T02:39:40.600Z,35.4
2019-03-28T02:40:30.943Z,35.4
2019-03-28T02:41:20.752Z,35.4
2019-03-28T02:42:10.768Z,35.4
2019-03-28T02:43:01.191Z,35.4
2019-03-28T02:43:51.240Z,35.4
2019-03-28T02:44:42.432Z,35.4
2019-03-28T02:45:32.904Z,35.4
2019-03-28T02:46:20.515Z,35.4
2019-03-28T02:47:11.531Z,35.4
2019-03-28T02:48:02.505Z,35.4
2019-03-28T02:48:51.954Z,35.4
2019-03-28T02:49:41.583Z,35.4
2019-03-28T02:50:31.588Z,35.4
2019-03-28T02:51:22.000Z,35.4
2019-03-28T02:52:11.763Z,35.3
2019-03-28T02:53:00.981Z,35.3
2019-03-28T02:53:52.319Z,35.3
2019-03-28T02:54:42.276Z,35.3
2019-03-28T02:55:32.017Z,35.3
2019-03-28T02:56:22.583Z,35.3
2019-03-28T02:57:13.405Z,35.3
2019-03-28T02:58:01.881Z,35.3
2019-03-28T02:58:52.229Z,35.3
2019-03-28T02:59:42.322Z,35.3
2019-03-28T03:00:32.110Z,35.3
2019-03-28T03:01:22.729Z,35.3
2019-03-28T03:02:13.339Z,35.3
2019-03-28T03:03:02.929Z,35.3
2019-03-28T03:03:52.639Z,35.3
2019-03-28T03:07:23.247Z,35.3
2019-03-28T03:08:14.122Z,35.3
2019-03-28T03:09:04.676Z,35.3
2019-03-28T03:09:54.994Z,35.3
2019-03-28T03:10:44.216Z,35.3
2019-03-28T03:11:33.429Z,35.3
2019-03-28T03:12:23.344Z,35.3
2019-03-28T03:13:13.852Z,35.2
2019-03-28T03:14:04.161Z,35.3
2019-03-28T03:14:53.656Z,35.3
2019-03-28T03:15:44.252Z,35.2
2019-03-28T03:16:33.770Z,35.2
2019-03-28T03:17:23.563Z,35.2
2019-03-28T03:18:14.466Z,35.2
2019-03-28T03:19:05.184Z,35.2
2019-03-28T03:19:54.760Z,35.2
2019-03-28T03:20:45.160Z,35.2
2019-03-28T03:21:35.898Z,35.2
2019-03-28T03:22:24.458Z,35.2
2019-03-28T03:23:14.117Z,35.2
2019-03-28T03:24:04.672Z,35.1
2019-03-28T03:24:55.073Z,35.1
2019-03-28T03:25:44.293Z,35.1
2019-03-28T03:26:34.799Z,35.1
2019-03-28T03:27:24.848Z,35.1
2019-03-28T03:28:14.850Z,35.1
2019-03-28T03:29:05.056Z,35.1
2019-03-28T03:29:55.020Z,35.1
2019-03-28T03:30:45.468Z,35.1
2019-03-28T03:31:35.564Z,35.1
2019-03-28T03:32:25.493Z,35.1
2019-03-28T03:33:16.164Z,35.1
2019-03-28T03:34:08.200Z,35.1
2019-03-28T03:34:55.875Z,35.1
2019-03-28T03:35:45.720Z,35.1
2019-03-28T03:36:35.227Z,35.1
2019-03-28T03:37:24.792Z,35.1
2019-03-28T03:38:15.122Z,35.1
2019-03-28T03:39:05.536Z,35.1
2019-03-28T03:39:55.767Z,35.1
2019-03-28T03:40:45.516Z,35.1
2019-03-28T03:41:35.738Z,35.1
2019-03-28T03:42:25.935Z,35.1
2019-03-28T03:43:16.007Z,35.1
2019-03-28T03:44:06.405Z,35
2019-03-28T03:44:56.360Z,35.1
2019-03-28T03:45:46.486Z,35.1
2019-03-28T03:46:35.927Z,35.1
2019-03-28T03:47:26.095Z,35.1
2019-03-28T03:48:17.274Z,35
2019-03-28T03:49:07.020Z,35
2019-03-28T03:49:57.979Z,35
2019-03-28T03:50:46.290Z,35
2019-03-28T03:51:36.614Z,35
2019-03-28T03:52:26.645Z,35
2019-03-28T03:53:16.699Z,35
2019-03-28T03:54:06.501Z,35
2019-03-28T03:54:57.200Z,35
2019-03-28T03:55:47.160Z,35
2019-03-28T03:56:37.262Z,35
2019-03-28T03:57:27.283Z,35
2019-03-28T03:58:24.419Z,35
2019-03-28T03:59:06.825Z,34.9
2019-03-28T03:59:56.905Z,35
2019-03-28T04:00:47.311Z,34.9
2019-03-28T04:01:37.349Z,34.9
2019-03-28T04:02:26.841Z,34.9
2019-03-28T04:03:16.607Z,34.9
2019-03-28T04:04:07.557Z,34.9
2019-03-28T04:05:02.408Z,34.9
2019-03-28T04:05:47.858Z,34.9
2019-03-28T04:06:36.905Z,34.9
2019-03-28T04:07:27.530Z,34.9
2019-03-28T04:08:18.113Z,34.9
2019-03-28T04:09:08.155Z,34.9
2019-03-28T04:09:57.975Z,34.9
2019-03-28T04:10:47.667Z,34.9
2019-03-28T04:11:38.151Z,34.9
2019-03-28T04:12:28.689Z,34.9
2019-03-28T04:13:18.177Z,34.9
2019-03-28T04:14:08.618Z,34.9
2019-03-28T04:14:58.257Z,34.9
2019-03-28T04:15:48.094Z,34.9
2019-03-28T04:16:38.688Z,34.9
2019-03-28T04:17:28.436Z,34.9
2019-03-28T04:18:24.023Z,34.9
2019-03-28T04:19:08.714Z,34.8
2019-03-28T04:20:00.498Z,34.8
2019-03-28T04:20:48.468Z,34.8
2019-03-28T04:21:38.465Z,34.8
2019-03-28T04:22:29.099Z,34.8
2019-03-28T04:23:18.715Z,34.8
2019-03-28T04:24:09.316Z,34.8
2019-03-28T04:24:59.276Z,34.8
2019-03-28T04:25:49.183Z,34.8
2019-03-28T04:26:38.570Z,34.8
2019-03-28T04:27:29.180Z,34.8
2019-03-28T04:28:39.020Z,34.8
2019-03-28T04:29:10.096Z,34.8
2019-03-28T04:30:00.596Z,34.8
2019-03-28T04:30:49.227Z,34.8
2019-03-28T04:31:39.539Z,34.8
2019-03-28T04:32:29.543Z,34.8
2019-03-28T04:33:19.849Z,34.8
2019-03-28T04:34:15.489Z,34.8
2019-03-28T04:35:01.077Z,34.8
2019-03-28T04:35:51.146Z,34.8
2019-03-28T04:36:40.761Z,34.8
2019-03-28T04:37:29.893Z,34.8
2019-03-28T04:38:20.037Z,34.7
2019-03-28T04:39:09.997Z,34.8
2019-03-28T04:39:59.755Z,34.8
2019-03-28T04:40:50.387Z,34.8
2019-03-28T04:41:40.178Z,34.7
2019-03-28T04:42:30.210Z,34.7
2019-03-28T04:43:19.832Z,34.7
2019-03-28T04:44:10.160Z,34.7
2019-03-28T04:45:00.936Z,34.7
2019-03-28T04:45:50.411Z,34.7
2019-03-28T04:46:40.776Z,34.7
2019-03-28T04:47:30.856Z,34.7
2019-03-28T04:48:20.345Z,34.7
2019-03-28T04:49:10.663Z,34.7
2019-03-28T04:50:00.879Z,34.7
2019-03-28T04:50:50.785Z,34.7
2019-03-28T04:51:40.838Z,34.7
2019-03-28T04:52:34.366Z,34.7
2019-03-28T04:53:20.443Z,34.6
2019-03-28T04:54:13.846Z,34.6
2019-03-28T04:55:01.453Z,34.6
2019-03-28T04:55:51.648Z,34.6
2019-03-28T04:56:42.165Z,34.6
2019-03-28T04:57:32.500Z,34.6
2019-03-28T04:58:26.274Z,34.6
2019-03-28T04:59:11.647Z,34.6
2019-03-28T05:00:00.885Z,34.6
2019-03-28T05:00:51.619Z,34.6
2019-03-28T05:01:41.590Z,34.6
2019-03-28T05:02:32.901Z,34.5
2019-03-28T05:03:22.100Z,34.5
2019-03-28T05:04:12.188Z,34.5
2019-03-28T05:05:02.063Z,34.4
2019-03-28T05:05:51.886Z,34.4
2019-03-28T05:06:43.357Z,34.4
2019-03-28T05:07:31.421Z,34.4
2019-03-28T05:08:21.224Z,34.4
2019-03-28T05:09:12.129Z,34.4
2019-03-28T05:10:02.065Z,34.3
2019-03-28T05:10:52.480Z,34.3
2019-03-28T05:11:41.579Z,34.3
2019-03-28T05:12:32.617Z,34.3
2019-03-28T05:13:23.673Z,34.3
2019-03-28T05:14:13.761Z,34.3
2019-03-28T05:15:02.847Z,34.4
2019-03-28T05:15:52.880Z,34.3
2019-03-28T05:16:42.919Z,34.3
2019-03-28T05:17:32.406Z,34.3
2019-03-28T05:18:22.756Z,34.3
2019-03-28T05:19:12.827Z,34.3
2019-03-28T05:20:03.094Z,34.3
2019-03-28T05:20:53.199Z,34.3
2019-03-28T05:21:43.377Z,34.3
2019-03-28T05:22:33.069Z,34.3
2019-03-28T05:23:23.658Z,34.3
2019-03-28T05:24:13.191Z,34.3
2019-03-28T05:25:04.643Z,34.3
2019-03-28T05:25:54.369Z,34.2
2019-03-28T05:26:44.363Z,34.2
2019-03-28T05:27:33.991Z,34.2
2019-03-28T05:28:23.596Z,34.2
2019-03-28T05:29:13.818Z,34.1
2019-03-28T05:30:06.314Z,34.1
2019-03-28T05:30:53.653Z,34.1
2019-03-28T05:31:43.723Z,34.1
2019-03-28T05:32:33.580Z,34.1
2019-03-28T05:33:24.096Z,34.1
2019-03-28T05:34:14.373Z,34
2019-03-28T05:35:05.126Z,34
2019-03-28T05:35:54.720Z,34
2019-03-28T05:36:45.368Z,34
2019-03-28T05:37:33.903Z,34
2019-03-28T05:38:23.728Z,33.9
2019-03-28T05:39:14.063Z,34
2019-03-28T05:40:04.760Z,33.9
2019-03-28T05:40:54.118Z,34
2019-03-28T05:41:43.830Z,34
2019-03-28T05:42:34.774Z,33.9
2019-03-28T05:43:24.570Z,33.9
2019-03-28T05:44:14.627Z,33.9
2019-03-28T05:45:05.237Z,33.9
2019-03-28T05:45:54.777Z,33.9
2019-03-28T05:46:45.085Z,33.9
2019-03-28T05:47:35.803Z,33.9
2019-03-28T05:48:24.655Z,33.9
2019-03-28T05:49:14.985Z,33.8
2019-03-28T05:50:05.345Z,33.8
2019-03-28T05:50:54.730Z,33.8
2019-03-28T05:51:45.172Z,33.7
2019-03-28T05:52:34.879Z,33.7
2019-03-28T05:53:26.047Z,33.7
2019-03-28T05:54:14.339Z,33.8
2019-03-28T05:55:08.594Z,33.7
2019-03-28T05:55:55.007Z,33.8
2019-03-28T05:56:45.799Z,33.8
2019-03-28T05:57:35.570Z,33.8
2019-03-28T05:58:25.923Z,33.8
2019-03-28T05:59:17.167Z,33.8
2019-03-28T06:00:06.262Z,33.8
2019-03-28T06:00:57.149Z,33.8
2019-03-28T06:01:46.135Z,33.8
2019-03-28T06:02:36.257Z,33.8
2019-03-28T06:03:25.709Z,33.8
2019-03-28T06:05:23.577Z,33.8
2019-03-28T06:06:13.561Z,33.8
2019-03-28T06:07:17.721Z,33.8
2019-03-28T06:07:53.117Z,33.8
2019-03-28T06:08:58.696Z,33.8
2019-03-28T06:09:48.606Z,33.8
2019-03-28T06:10:23.304Z,33.8
2019-03-28T06:11:13.846Z,33.8
2019-03-28T06:12:03.709Z,33.8
2019-03-28T06:13:08.190Z,33.8
2019-03-28T06:13:44.393Z,33.8
2019-03-28T06:14:34.169Z,33.8
2019-03-28T06:15:23.948Z,33.8
2019-03-28T06:16:13.736Z,33.8
2019-03-28T06:17:18.168Z,33.8
2019-03-28T06:17:55.853Z,33.8
2019-03-28T06:18:44.488Z,33.8
2019-03-28T06:19:34.703Z,33.7
2019-03-28T06:20:23.731Z,33.7
2019-03-28T06:21:14.551Z,33.8
2019-03-28T06:22:04.685Z,33.8
2019-03-28T06:22:54.420Z,33.7
2019-03-28T06:23:45.038Z,33.7
2019-03-28T06:24:35.405Z,33.7
2019-03-28T06:25:27.603Z,33.6
2019-03-28T06:26:15.555Z,33.6
2019-03-28T06:27:04.283Z,33.5
2019-03-28T06:27:54.707Z,33.4
2019-03-28T06:28:43.868Z,33.4
2019-03-28T06:29:34.453Z,33.3
2019-03-28T06:30:24.721Z,33.3
2019-03-28T06:31:16.167Z,33.2
2019-03-28T06:32:06.357Z,33.1
2019-03-28T06:32:55.267Z,33
2019-03-28T06:33:45.250Z,32.9
2019-03-28T06:34:34.809Z,32.8
2019-03-28T06:35:28.212Z,32.8
2019-03-28T06:36:16.794Z,32.6
2019-03-28T06:37:06.380Z,32.5
2019-03-28T06:37:58.982Z,32.4
2019-03-28T06:38:45.600Z,32.3
2019-03-28T06:39:38.530Z,32.2
2019-03-28T06:40:25.997Z,32
2019-03-28T06:41:15.537Z,31.9
2019-03-28T06:42:05.396Z,31.8
2019-03-28T06:42:55.924Z,31.7
2019-03-28T06:43:47.244Z,31.6
2019-03-28T06:44:35.774Z,31.4
2019-03-28T06:45:26.135Z,31.4
2019-03-28T06:46:16.427Z,31.3
2019-03-28T06:47:05.668Z,31.1
2019-03-28T06:47:56.296Z,31.1
2019-03-28T06:48:45.521Z,30.9
2019-03-28T06:49:35.640Z,30.9
2019-03-28T06:50:26.269Z,30.8
2019-03-28T06:51:16.511Z,30.6
2019-03-28T06:52:06.571Z,30.5
2019-03-28T06:52:56.889Z,30.4
2019-03-28T06:53:46.659Z,30.4
2019-03-28T06:54:36.876Z,30.3
2019-03-28T06:55:30.338Z,30.2
2019-03-28T06:56:17.880Z,30.1
2019-03-28T06:57:06.672Z,30
2019-03-28T06:57:57.056Z,29.9
2019-03-28T06:58:46.761Z,29.9
2019-03-28T06:59:43.281Z,29.8
2019-03-28T07:00:26.679Z,26.9
2019-03-28T07:01:17.481Z,18.8
2019-03-28T07:02:06.983Z,22.6
2019-03-28T07:02:56.823Z,27.4
2019-03-28T07:05:30.527Z,25
2019-03-28T07:06:12.738Z,21.6
2019-03-28T07:07:03.086Z,20.9
2019-03-28T07:07:52.888Z,20.5
2019-03-28T07:08:43.208Z,20.4
2019-03-28T07:09:33.740Z,20.4
2019-03-28T07:10:23.520Z,20.6
2019-03-28T07:11:13.308Z,20.6
2019-03-28T07:12:03.160Z,20.8
2019-03-28T07:12:53.194Z,20.9
2019-03-28T07:13:43.562Z,21.1
2019-03-28T07:14:33.957Z,21.2
2019-03-28T07:15:24.322Z,21.4
2019-03-28T07:16:13.740Z,21.6
2019-03-28T07:17:03.787Z,21.8
2019-03-28T07:17:53.580Z,21.9
2019-03-28T07:18:43.910Z,22.1
2019-03-28T07:19:34.057Z,22.3
2019-03-28T07:20:23.468Z,20.9
2019-03-28T07:21:13.639Z,21.8
2019-03-28T07:22:03.807Z,26.5
2019-03-28T07:22:53.900Z,28.5
2019-03-28T07:23:44.499Z,28.8
2019-03-28T07:24:34.548Z,27.9
2019-03-28T07:25:27.930Z,26.7
2019-03-28T07:26:14.662Z,25.6
2019-03-28T07:27:03.946Z,24.9
2019-03-28T07:27:54.596Z,24.7
2019-03-28T07:28:43.786Z,24.8
2019-03-28T07:29:34.477Z,24.9
2019-03-28T07:30:25.109Z,25
2019-03-28T07:31:15.043Z,24.9
2019-03-28T07:32:04.884Z,24.7
2019-03-28T07:32:54.689Z,24.3
2019-03-28T07:33:45.001Z,24.1
2019-03-28T07:34:34.786Z,23.8
2019-03-28T07:35:24.647Z,23.7
2019-03-28T07:36:14.621Z,23.6
2019-03-28T07:37:04.958Z,23.6
2019-03-28T07:37:54.831Z,23.7
2019-03-28T07:38:45.331Z,23.8
2019-03-28T07:39:35.435Z,24.2
2019-03-28T07:40:26.131Z,24.7
2019-03-28T07:41:18.343Z,25
2019-03-28T07:42:05.226Z,24.9
2019-03-28T07:42:55.937Z,24.6
2019-03-28T07:43:46.120Z,24.3
2019-03-28T07:44:39.479Z,23.9
2019-03-28T07:45:26.023Z,23.7
2019-03-28T07:46:15.865Z,23.6
2019-03-28T07:47:06.565Z,23.6
2019-03-28T07:47:57.145Z,23.6
2019-03-28T07:48:46.273Z,23.6
2019-03-28T07:49:39.188Z,23.7
2019-03-28T07:50:26.650Z,23.7
2019-03-28T07:51:16.722Z,23.7
2019-03-28T07:52:07.270Z,23.8
2019-03-28T07:52:57.547Z,23.8
2019-03-28T07:53:47.937Z,23.9
2019-03-28T07:54:36.697Z,24
2019-03-28T07:55:26.740Z,24
2019-03-28T07:56:16.798Z,24.1
2019-03-28T07:57:07.259Z,24.2
2019-03-28T07:57:56.632Z,24.3
2019-03-28T07:58:50.352Z,24.4
2019-03-28T07:59:37.348Z,25
2019-03-28T08:00:27.364Z,26.4
2019-03-28T08:01:20.922Z,28.1
2019-03-28T08:02:06.957Z,29.6
2019-03-28T08:03:01.294Z,30.6
2019-03-28T08:03:47.632Z,31.4
2019-03-28T08:04:37.403Z,32.1
2019-03-28T08:05:27.117Z,32.7
2019-03-28T08:06:18.972Z,33.1
2019-03-28T08:07:06.859Z,33.5
2019-03-28T08:07:57.934Z,33.9
2019-03-28T08:08:49.756Z,34.5
2019-03-28T08:09:42.730Z,35.1
2019-03-28T08:10:27.534Z,35.7
2019-03-28T08:11:18.651Z,36
2019-03-28T08:12:25.321Z,36.3
2019-03-28T08:12:58.271Z,36.7
2019-03-28T08:13:48.104Z,36.9
2019-03-28T08:14:38.183Z,37.2
2019-03-28T08:15:28.476Z,37.4
2019-03-28T08:16:17.696Z,37.5
2019-03-28T08:17:08.106Z,37.8
2019-03-28T08:17:58.631Z,38
2019-03-28T08:18:49.184Z,38.3
2019-03-28T08:19:43.234Z,38.4
2019-03-28T08:20:28.263Z,38.7
2019-03-28T08:21:18.905Z,38.9
2019-03-28T08:22:08.194Z,38.8
2019-03-28T08:22:58.250Z,37.9
2019-03-28T08:23:48.584Z,37.1
2019-03-28T08:24:38.351Z,37
2019-03-28T08:25:28.709Z,37.7
2019-03-28T08:26:18.750Z,38.8
2019-03-28T08:27:08.644Z,39.7
2019-03-28T08:28:02.400Z,40.4
2019-03-28T08:28:48.953Z,40.9
2019-03-28T08:29:39.018Z,41.1
2019-03-28T08:30:28.777Z,41.3
2019-03-28T08:31:20.270Z,41.4
2019-03-28T08:32:10.276Z,41.6
2019-03-28T08:32:58.973Z,41.9
2019-03-28T08:33:49.000Z,42.2
2019-03-28T08:34:39.360Z,41.9
2019-03-28T08:35:29.527Z,40.7
2019-03-28T08:36:19.238Z,39.3
2019-03-28T08:37:09.092Z,38.2
2019-03-28T08:37:59.657Z,38.4
2019-03-28T08:38:49.651Z,39.6
2019-03-28T08:39:39.705Z,41.1
2019-03-28T08:40:29.030Z,42.5
2019-03-28T08:41:20.637Z,43.3
2019-03-28T08:42:09.405Z,43.8
2019-03-28T08:42:59.454Z,43.8
2019-03-28T08:43:49.260Z,43.8
2019-03-28T08:44:40.507Z,43.8
2019-03-28T08:45:29.567Z,44.1
2019-03-28T08:46:20.205Z,44.5
2019-03-28T08:47:11.323Z,44.9
2019-03-28T08:48:00.090Z,45.3
2019-03-28T08:48:50.145Z,45.4
2019-03-28T08:49:40.164Z,45.5
2019-03-28T08:50:30.503Z,45.1
2019-03-28T08:51:20.294Z,44.1
2019-03-28T08:52:14.045Z,42.9
2019-03-28T08:53:00.209Z,42.8
2019-03-28T08:53:50.456Z,43.4
2019-03-28T08:54:40.535Z,44.5
2019-03-28T08:55:30.424Z,45.6
2019-03-28T08:56:20.189Z,46.4
2019-03-28T08:57:11.063Z,46.9
2019-03-28T08:58:01.082Z,47.1
2019-03-28T08:58:50.909Z,47.3
2019-03-28T08:59:41.169Z,47.4
2019-03-28T09:00:57.944Z,47.7
2019-03-28T09:01:21.374Z,48.1
2019-03-28T09:02:11.411Z,48.3
2019-03-28T09:03:01.116Z,48.6
2019-03-28T09:03:54.901Z,48.8
2019-03-28T09:04:41.986Z,49
2019-03-28T09:05:31.521Z,48.9
2019-03-28T09:06:23.261Z,48.2
2019-03-28T09:07:12.163Z,47.5
2019-03-28T09:08:02.241Z,47.6
2019-03-28T09:08:51.456Z,48.1
2019-03-28T09:09:42.349Z,48.8
2019-03-28T09:10:32.175Z,49.5
2019-03-28T09:11:25.805Z,49.9
2019-03-28T09:12:12.073Z,50.3
2019-03-28T09:13:02.333Z,50.4
2019-03-28T09:13:52.378Z,50.4
2019-03-28T09:14:42.578Z,50.5
2019-03-28T09:15:47.701Z,50.7
2019-03-28T09:16:22.853Z,51.1
2019-03-28T09:17:11.855Z,51.3
2019-03-28T09:18:05.155Z,51.6
2019-03-28T09:18:52.606Z,51.9
2019-03-28T09:19:44.282Z,52.1
2019-03-28T09:20:32.324Z,52.3
2019-03-28T09:21:22.765Z,52.5
2019-03-28T09:22:12.700Z,52.7
2019-03-28T09:23:03.125Z,52.9
2019-03-28T09:23:52.825Z,53
2019-03-28T09:24:42.906Z,53.2
2019-03-28T09:25:33.467Z,53.4
2019-03-28T09:26:23.545Z,53.6
2019-03-28T09:27:13.334Z,53.8
2019-03-28T09:28:03.121Z,53.9
2019-03-28T09:28:53.785Z,54.1
2019-03-28T09:29:42.689Z,54.3
2019-03-28T09:30:50.444Z,54.4
2019-03-28T09:31:26.148Z,54.7
2019-03-28T09:32:13.389Z,54.8
2019-03-28T09:33:03.362Z,54.9
2019-03-28T09:33:53.555Z,55.1
2019-03-28T09:34:43.902Z,55.2
2019-03-28T09:35:34.973Z,55.3
2019-03-28T09:36:24.462Z,55.4
2019-03-28T09:37:14.379Z,55.6
2019-03-28T09:38:03.870Z,55.7
2019-03-28T09:38:53.917Z,55.9
2019-03-28T09:39:44.265Z,56
2019-03-28T09:40:34.624Z,56.2
2019-03-28T09:41:24.173Z,56.3
2019-03-28T09:42:14.684Z,56.4
2019-03-28T09:43:04.326Z,56.6
2019-03-28T09:44:01.630Z,56.8
2019-03-28T09:44:44.887Z,56.9
2019-03-28T09:45:35.565Z,57.1
2019-03-28T09:46:23.964Z,57.3
2019-03-28T09:47:13.996Z,57.4
2019-03-28T09:48:04.665Z,57.6
2019-03-28T09:48:54.241Z,57.8
2019-03-28T09:49:44.749Z,57.9
2019-03-28T09:50:34.528Z,58
2019-03-28T09:51:24.601Z,58.1
2019-03-28T09:52:15.156Z,58.2
2019-03-28T09:53:06.242Z,58.3
2019-03-28T09:53:55.395Z,58.4
2019-03-28T09:54:44.750Z,58.4
2019-03-28T09:55:35.420Z,58.5
2019-03-28T09:56:25.516Z,58.6
2019-03-28T09:57:15.187Z,58.8
2019-03-28T09:58:05.813Z,58.9
2019-03-28T09:58:55.616Z,59.1
2019-03-28T09:59:45.713Z,59.3
2019-03-28T10:00:39.917Z,59.4
2019-03-28T10:01:25.545Z,59.5
2019-03-28T10:02:15.853Z,59.6
2019-03-28T10:03:05.280Z,59.7
2019-03-28T10:03:55.763Z,59.8
2019-03-28T10:06:23.045Z,60
2019-03-28T10:07:12.810Z,60.1
2019-03-28T10:08:02.967Z,60.2
2019-03-28T10:08:52.782Z,60.3
2019-03-28T10:09:45.666Z,60.4
2019-03-28T10:10:33.620Z,60.4
2019-03-28T10:11:22.335Z,60.6
2019-03-28T10:12:13.734Z,60.7
2019-03-28T10:13:03.514Z,60.8
2019-03-28T10:13:53.344Z,60.9
2019-03-28T10:14:43.895Z,61
2019-03-28T10:15:37.405Z,61.1
2019-03-28T10:16:24.031Z,61.1
2019-03-28T10:17:13.323Z,61.2
2019-03-28T10:18:03.661Z,61.3
2019-03-28T10:18:53.943Z,61.3
2019-03-28T10:19:44.243Z,61.3
2019-03-28T10:20:34.033Z,61.4
2019-03-28T10:21:24.123Z,61.5
2019-03-28T10:22:14.456Z,61.6
2019-03-28T10:23:04.510Z,61.7
2019-03-28T10:23:53.833Z,61.8
2019-03-28T10:24:44.518Z,61.8
2019-03-28T10:25:33.986Z,61.8
2019-03-28T10:26:24.435Z,61.9
2019-03-28T10:27:14.546Z,61.9
2019-03-28T10:28:04.410Z,61.9
2019-03-28T10:28:54.930Z,62
2019-03-28T10:29:44.426Z,62.1
2019-03-28T10:30:35.018Z,62.1
2019-03-28T10:31:24.605Z,62.3
2019-03-28T10:32:29.338Z,62.4
2019-03-28T10:33:04.787Z,62.4
2019-03-28T10:33:56.015Z,62.5
2019-03-28T10:34:44.675Z,62.6
2019-03-28T10:35:34.842Z,62.6
2019-03-28T10:36:28.323Z,62.8
2019-03-28T10:37:14.973Z,62.8
2019-03-28T10:38:05.597Z,62.8
2019-03-28T10:38:55.363Z,62.9
2019-03-28T10:39:45.250Z,63
2019-03-28T10:40:34.997Z,63.1
2019-03-28T10:41:30.340Z,63.2
2019-03-28T10:42:15.867Z,63.3
2019-03-28T10:43:05.715Z,63.4
2019-03-28T10:43:55.739Z,63.6
2019-03-28T10:44:46.064Z,63.7
2019-03-28T10:45:39.449Z,63.9
2019-03-28T10:46:25.887Z,64.1
2019-03-28T10:47:15.529Z,64.2
2019-03-28T10:48:06.274Z,64.3
2019-03-28T10:48:59.804Z,63.9
2019-03-28T10:49:47.284Z,63
2019-03-28T10:50:51.283Z,62.7
2019-03-28T10:51:26.537Z,62.9
2019-03-28T10:52:18.049Z,63.3
2019-03-28T10:53:06.399Z,63.8
2019-03-28T10:53:56.767Z,64.1
2019-03-28T10:54:46.282Z,64.3
2019-03-28T10:55:36.174Z,64.3
2019-03-28T10:56:29.562Z,64.1
2019-03-28T10:57:36.739Z,64.1
2019-03-28T10:58:22.916Z,64.4
2019-03-28T10:58:56.342Z,64.8
2019-03-28T10:59:46.646Z,65
2019-03-28T11:00:36.443Z,65.3
2019-03-28T11:01:56.536Z,65.4
2019-03-28T11:02:18.373Z,65.6
2019-03-28T11:03:09.058Z,65.6
2019-03-28T11:03:57.962Z,65.6
2019-03-28T11:04:48.540Z,65.7
2019-03-28T11:05:37.138Z,65.8
2019-03-28T11:06:27.300Z,65.7
2019-03-28T11:07:17.406Z,64.9
2019-03-28T11:08:07.768Z,63.8
2019-03-28T11:08:57.328Z,62.6
2019-03-28T11:09:47.600Z,62.4
2019-03-28T11:10:37.417Z,63.1
2019-03-28T11:11:28.533Z,64.3
2019-03-28T11:12:17.841Z,65.1
2019-03-28T11:13:11.964Z,64.8
2019-03-28T11:13:57.628Z,63.2
2019-03-28T11:14:51.301Z,61.6
2019-03-28T11:15:37.233Z,60
2019-03-28T11:16:28.117Z,59.1